sensor_id;sensor_type;location;lat;lon;timestamp;P1;durP1;ratioP1;P2;durP2;ratioP2
73823;SDS011;62154;54.914;73.444;2023-08-24T00:00:44;11.27;;;7.13;;
73823;SDS011;62154;54.914;73.444;2023-08-24T00:03:12;7.75;;;5.55;;
73823;SDS011;62154;54.914;73.444;2023-08-24T00:05:40;6.65;;;5.03;;
73823;SDS011;62154;54.914;73.444;2023-08-24T00:08:09;7.95;;;5.90;;
73823;SDS011;62154;54.914;73.444;2023-08-24T00:10:38;9.88;;;4.68;;
73823;SDS011;62154;54.914;73.444;2023-08-24T00:13:06;9.15;;;5.00;;
73823;SDS011;62154;54.914;73.444;2023-08-24T00:15:34;12.27;;;4.88;;
73823;SDS011;62154;54.914;73.444;2023-08-24T00:18:02;10.80;;;5.07;;
73823;SDS011;62154;54.914;73.444;2023-08-24T00:20:30;10.93;;;5.20;;
73823;SDS011;62154;54.914;73.444;2023-08-24T00:22:59;7.07;;;4.07;;
73823;SDS011;62154;54.914;73.444;2023-08-24T00:25:27;7.63;;;4.93;;
73823;SDS011;62154;54.914;73.444;2023-08-24T00:27:55;8.73;;;4.90;;
73823;SDS011;62154;54.914;73.444;2023-08-24T00:30:24;7.90;;;5.32;;
73823;SDS011;62154;54.914;73.444;2023-08-24T00:32:52;7.28;;;5.85;;
73823;SDS011;62154;54.914;73.444;2023-08-24T00:35:20;6.82;;;5.28;;
73823;SDS011;62154;54.914;73.444;2023-08-24T00:37:48;8.10;;;5.10;;
73823;SDS011;62154;54.914;73.444;2023-08-24T00:40:17;11.63;;;5.18;;
73823;SDS011;62154;54.914;73.444;2023-08-24T00:42:48;12.23;;;4.65;;
73823;SDS011;62154;54.914;73.444;2023-08-24T00:45:15;7.47;;;4.35;;
73823;SDS011;62154;54.914;73.444;2023-08-24T00:47:44;8.75;;;4.45;;
73823;SDS011;62154;54.914;73.444;2023-08-24T00:50:14;9.35;;;5.13;;
73823;SDS011;62154;54.914;73.444;2023-08-24T00:52:43;10.50;;;5.05;;
73823;SDS011;62154;54.914;73.444;2023-08-24T00:55:12;10.27;;;5.10;;
73823;SDS011;62154;54.914;73.444;2023-08-24T00:57:40;13.20;;;5.00;;
73823;SDS011;62154;54.914;73.444;2023-08-24T01:00:09;9.73;;;4.70;;
73823;SDS011;62154;54.914;73.444;2023-08-24T01:02:37;10.95;;;5.65;;
73823;SDS011;62154;54.914;73.444;2023-08-24T01:05:06;11.25;;;5.13;;
73823;SDS011;62154;54.914;73.444;2023-08-24T01:07:37;14.10;;;5.90;;
73823;SDS011;62154;54.914;73.444;2023-08-24T01:10:17;9.35;;;4.90;;
73823;SDS011;62154;54.914;73.444;2023-08-24T01:15:42;15.98;;;5.80;;
73823;SDS011;62154;54.914;73.444;2023-08-24T01:18:22;9.32;;;4.93;;
73823;SDS011;62154;54.914;73.444;2023-08-24T01:20:53;9.95;;;4.72;;
73823;SDS011;62154;54.914;73.444;2023-08-24T01:25:53;13.07;;;5.43;;
73823;SDS011;62154;54.914;73.444;2023-08-24T01:30:54;13.48;;;5.15;;
73823;SDS011;62154;54.914;73.444;2023-08-24T01:33:21;11.80;;;4.82;;
73823;SDS011;62154;54.914;73.444;2023-08-24T01:35:49;7.13;;;4.15;;
73823;SDS011;62154;54.914;73.444;2023-08-24T01:38:17;14.05;;;5.28;;
73823;SDS011;62154;54.914;73.444;2023-08-24T01:43:21;9.95;;;6.30;;
73823;SDS011;62154;54.914;73.444;2023-08-24T01:45:55;15.23;;;5.77;;
73823;SDS011;62154;54.914;73.444;2023-08-24T01:48:25;12.13;;;6.03;;
73823;SDS011;62154;54.914;73.444;2023-08-24T01:50:53;11.07;;;5.10;;
73823;SDS011;62154;54.914;73.444;2023-08-24T01:53:22;15.23;;;5.25;;
73823;SDS011;62154;54.914;73.444;2023-08-24T01:55:50;16.55;;;6.07;;
73823;SDS011;62154;54.914;73.444;2023-08-24T01:58:20;11.52;;;5.93;;
73823;SDS011;62154;54.914;73.444;2023-08-24T02:00:47;7.97;;;5.40;;
73823;SDS011;62154;54.914;73.444;2023-08-24T02:03:15;9.60;;;5.28;;
73823;SDS011;62154;54.914;73.444;2023-08-24T02:05:42;9.15;;;5.88;;
73823;SDS011;62154;54.914;73.444;2023-08-24T02:08:10;14.27;;;7.93;;
73823;SDS011;62154;54.914;73.444;2023-08-24T02:10:37;15.52;;;7.53;;
73823;SDS011;62154;54.914;73.444;2023-08-24T02:13:05;11.73;;;7.35;;
73823;SDS011;62154;54.914;73.444;2023-08-24T02:15:33;10.30;;;7.03;;
73823;SDS011;62154;54.914;73.444;2023-08-24T02:18:01;11.82;;;7.07;;
73823;SDS011;62154;54.914;73.444;2023-08-24T02:20:28;13.77;;;6.65;;
73823;SDS011;62154;54.914;73.444;2023-08-24T02:22:56;14.40;;;7.87;;
73823;SDS011;62154;54.914;73.444;2023-08-24T02:25:24;18.42;;;8.05;;
73823;SDS011;62154;54.914;73.444;2023-08-24T02:27:52;14.80;;;7.88;;
73823;SDS011;62154;54.914;73.444;2023-08-24T02:30:20;17.30;;;8.15;;
73823;SDS011;62154;54.914;73.444;2023-08-24T02:32:49;14.82;;;8.56;;
73823;SDS011;62154;54.914;73.444;2023-08-24T02:35:17;19.98;;;9.55;;
73823;SDS011;62154;54.914;73.444;2023-08-24T02:37:45;24.42;;;11.70;;
73823;SDS011;62154;54.914;73.444;2023-08-24T02:40:13;24.45;;;14.45;;
73823;SDS011;62154;54.914;73.444;2023-08-24T02:42:43;30.83;;;16.88;;
73823;SDS011;62154;54.914;73.444;2023-08-24T02:45:10;31.70;;;19.38;;
73823;SDS011;62154;54.914;73.444;2023-08-24T02:47:38;37.40;;;22.08;;
73823;SDS011;62154;54.914;73.444;2023-08-24T02:50:06;48.28;;;23.42;;
73823;SDS011;62154;54.914;73.444;2023-08-24T02:52:35;46.53;;;24.42;;
73823;SDS011;62154;54.914;73.444;2023-08-24T02:55:03;45.58;;;25.92;;
73823;SDS011;62154;54.914;73.444;2023-08-24T02:57:32;52.58;;;27.10;;
73823;SDS011;62154;54.914;73.444;2023-08-24T03:00:03;47.72;;;25.20;;
73823;SDS011;62154;54.914;73.444;2023-08-24T03:02:33;47.83;;;24.48;;
73823;SDS011;62154;54.914;73.444;2023-08-24T03:05:01;41.20;;;20.73;;
73823;SDS011;62154;54.914;73.444;2023-08-24T03:07:34;47.70;;;22.00;;
73823;SDS011;62154;54.914;73.444;2023-08-24T03:10:02;37.33;;;18.65;;
73823;SDS011;62154;54.914;73.444;2023-08-24T03:12:30;39.95;;;19.33;;
73823;SDS011;62154;54.914;73.444;2023-08-24T03:14:57;37.10;;;18.70;;
73823;SDS011;62154;54.914;73.444;2023-08-24T03:17:25;33.40;;;17.77;;
73823;SDS011;62154;54.914;73.444;2023-08-24T03:19:53;28.95;;;15.32;;
73823;SDS011;62154;54.914;73.444;2023-08-24T03:22:21;27.25;;;14.88;;
73823;SDS011;62154;54.914;73.444;2023-08-24T03:24:49;26.65;;;14.45;;
73823;SDS011;62154;54.914;73.444;2023-08-24T03:27:16;34.20;;;15.70;;
73823;SDS011;62154;54.914;73.444;2023-08-24T03:29:44;35.80;;;18.10;;
73823;SDS011;62154;54.914;73.444;2023-08-24T03:32:11;71.53;;;31.15;;
73823;SDS011;62154;54.914;73.444;2023-08-24T03:34:39;87.03;;;36.65;;
73823;SDS011;62154;54.914;73.444;2023-08-24T03:37:09;76.40;;;30.90;;
73823;SDS011;62154;54.914;73.444;2023-08-24T03:39:38;91.32;;;34.53;;
73823;SDS011;62154;54.914;73.444;2023-08-24T03:42:06;75.32;;;33.67;;
73823;SDS011;62154;54.914;73.444;2023-08-24T03:44:34;72.70;;;30.80;;
73823;SDS011;62154;54.914;73.444;2023-08-24T03:47:02;89.53;;;35.83;;
73823;SDS011;62154;54.914;73.444;2023-08-24T03:49:30;89.15;;;30.88;;
73823;SDS011;62154;54.914;73.444;2023-08-24T03:51:58;87.72;;;33.55;;
73823;SDS011;62154;54.914;73.444;2023-08-24T03:54:28;59.03;;;24.98;;
73823;SDS011;62154;54.914;73.444;2023-08-24T03:56:55;86.10;;;32.65;;
73823;SDS011;62154;54.914;73.444;2023-08-24T03:59:22;94.28;;;37.65;;
73823;SDS011;62154;54.914;73.444;2023-08-24T04:01:50;86.13;;;33.75;;
73823;SDS011;62154;54.914;73.444;2023-08-24T04:04:18;86.10;;;35.28;;
73823;SDS011;62154;54.914;73.444;2023-08-24T04:06:45;81.60;;;31.52;;
73823;SDS011;62154;54.914;73.444;2023-08-24T04:09:16;74.20;;;27.77;;
73823;SDS011;62154;54.914;73.444;2023-08-24T04:11:44;64.10;;;27.20;;
73823;SDS011;62154;54.914;73.444;2023-08-24T04:14:12;73.70;;;27.70;;
73823;SDS011;62154;54.914;73.444;2023-08-24T04:16:41;66.93;;;27.25;;
73823;SDS011;62154;54.914;73.444;2023-08-24T04:19:09;80.10;;;28.27;;
73823;SDS011;62154;54.914;73.444;2023-08-24T04:21:37;45.30;;;21.42;;
73823;SDS011;62154;54.914;73.444;2023-08-24T04:24:04;29.99;;;15.26;;
73823;SDS011;62154;54.914;73.444;2023-08-24T04:26:32;23.35;;;14.52;;
73823;SDS011;62154;54.914;73.444;2023-08-24T04:28:59;31.70;;;15.70;;
73823;SDS011;62154;54.914;73.444;2023-08-24T04:31:27;24.15;;;15.32;;
73823;SDS011;62154;54.914;73.444;2023-08-24T04:33:54;22.83;;;12.13;;
73823;SDS011;62154;54.914;73.444;2023-08-24T04:36:22;20.27;;;10.15;;
73823;SDS011;62154;54.914;73.444;2023-08-24T04:38:49;20.75;;;9.82;;
73823;SDS011;62154;54.914;73.444;2023-08-24T04:41:17;15.88;;;7.50;;
73823;SDS011;62154;54.914;73.444;2023-08-24T04:43:45;11.40;;;6.25;;
73823;SDS011;62154;54.914;73.444;2023-08-24T04:46:12;7.78;;;3.90;;
73823;SDS011;62154;54.914;73.444;2023-08-24T04:48:40;6.88;;;3.30;;
73823;SDS011;62154;54.914;73.444;2023-08-24T04:51:07;6.65;;;3.20;;
73823;SDS011;62154;54.914;73.444;2023-08-24T04:53:35;7.90;;;3.53;;
73823;SDS011;62154;54.914;73.444;2023-08-24T04:56:02;9.93;;;3.58;;
73823;SDS011;62154;54.914;73.444;2023-08-24T04:58:32;8.18;;;3.15;;
73823;SDS011;62154;54.914;73.444;2023-08-24T05:01:00;7.40;;;3.42;;
73823;SDS011;62154;54.914;73.444;2023-08-24T05:03:28;9.40;;;3.50;;
73823;SDS011;62154;54.914;73.444;2023-08-24T05:05:55;12.38;;;3.60;;
73823;SDS011;62154;54.914;73.444;2023-08-24T05:08:23;10.18;;;3.20;;
73823;SDS011;62154;54.914;73.444;2023-08-24T05:10:51;10.40;;;3.28;;
73823;SDS011;62154;54.914;73.444;2023-08-24T05:13:19;5.03;;;2.65;;
73823;SDS011;62154;54.914;73.444;2023-08-24T05:15:47;7.43;;;2.80;;
73823;SDS011;62154;54.914;73.444;2023-08-24T05:18:14;4.45;;;2.55;;
73823;SDS011;62154;54.914;73.444;2023-08-24T05:20:42;6.68;;;3.13;;
73823;SDS011;62154;54.914;73.444;2023-08-24T05:23:10;5.05;;;2.78;;
73823;SDS011;62154;54.914;73.444;2023-08-24T05:25:37;7.85;;;2.70;;
73823;SDS011;62154;54.914;73.444;2023-08-24T05:28:05;5.57;;;2.70;;
73823;SDS011;62154;54.914;73.444;2023-08-24T05:30:34;5.10;;;2.10;;
73823;SDS011;62154;54.914;73.444;2023-08-24T05:33:01;7.70;;;2.55;;
73823;SDS011;62154;54.914;73.444;2023-08-24T05:35:29;7.38;;;2.92;;
73823;SDS011;62154;54.914;73.444;2023-08-24T05:37:57;6.60;;;2.47;;
73823;SDS011;62154;54.914;73.444;2023-08-24T05:40:24;7.72;;;2.13;;
73823;SDS011;62154;54.914;73.444;2023-08-24T05:42:52;6.50;;;3.53;;
73823;SDS011;62154;54.914;73.444;2023-08-24T05:45:22;5.88;;;3.00;;
73823;SDS011;62154;54.914;73.444;2023-08-24T05:47:49;8.50;;;3.83;;
73823;SDS011;62154;54.914;73.444;2023-08-24T05:50:17;12.40;;;4.82;;
73823;SDS011;62154;54.914;73.444;2023-08-24T05:52:44;6.22;;;3.05;;
73823;SDS011;62154;54.914;73.444;2023-08-24T05:55:12;6.70;;;2.38;;
73823;SDS011;62154;54.914;73.444;2023-08-24T05:57:39;7.13;;;2.90;;
73823;SDS011;62154;54.914;73.444;2023-08-24T06:00:07;10.20;;;2.70;;
73823;SDS011;62154;54.914;73.444;2023-08-24T06:02:39;7.05;;;2.63;;
73823;SDS011;62154;54.914;73.444;2023-08-24T06:05:07;9.70;;;2.70;;
73823;SDS011;62154;54.914;73.444;2023-08-24T06:07:35;9.50;;;3.38;;
73823;SDS011;62154;54.914;73.444;2023-08-24T06:10:03;6.55;;;2.97;;
73823;SDS011;62154;54.914;73.444;2023-08-24T06:12:33;10.13;;;2.28;;
73823;SDS011;62154;54.914;73.444;2023-08-24T06:15:01;4.86;;;2.82;;
73823;SDS011;62154;54.914;73.444;2023-08-24T06:17:33;8.27;;;3.20;;
73823;SDS011;62154;54.914;73.444;2023-08-24T06:20:03;5.80;;;3.30;;
73823;SDS011;62154;54.914;73.444;2023-08-24T06:22:32;15.02;;;5.38;;
73823;SDS011;62154;54.914;73.444;2023-08-24T06:25:05;16.04;;;5.34;;
73823;SDS011;62154;54.914;73.444;2023-08-24T06:27:35;45.17;;;19.10;;
73823;SDS011;62154;54.914;73.444;2023-08-24T06:30:03;33.28;;;12.93;;
73823;SDS011;62154;54.914;73.444;2023-08-24T06:32:31;14.32;;;6.80;;
73823;SDS011;62154;54.914;73.444;2023-08-24T06:34:59;13.10;;;5.28;;
73823;SDS011;62154;54.914;73.444;2023-08-24T06:37:27;11.85;;;4.32;;
73823;SDS011;62154;54.914;73.444;2023-08-24T06:39:54;12.20;;;4.88;;
73823;SDS011;62154;54.914;73.444;2023-08-24T06:42:22;5.82;;;2.70;;
73823;SDS011;62154;54.914;73.444;2023-08-24T06:44:49;15.05;;;8.18;;
73823;SDS011;62154;54.914;73.444;2023-08-24T06:47:17;4.20;;;3.08;;
73823;SDS011;62154;54.914;73.444;2023-08-24T06:49:44;5.78;;;3.22;;
73823;SDS011;62154;54.914;73.444;2023-08-24T06:52:11;5.47;;;2.90;;
73823;SDS011;62154;54.914;73.444;2023-08-24T06:54:39;9.70;;;5.00;;
73823;SDS011;62154;54.914;73.444;2023-08-24T06:57:06;10.75;;;7.25;;
73823;SDS011;62154;54.914;73.444;2023-08-24T06:59:34;12.15;;;5.10;;
73823;SDS011;62154;54.914;73.444;2023-08-24T07:02:01;2.88;;;1.90;;
73823;SDS011;62154;54.914;73.444;2023-08-24T07:04:30;5.85;;;2.70;;
73823;SDS011;62154;54.914;73.444;2023-08-24T07:06:58;10.10;;;5.63;;
73823;SDS011;62154;54.914;73.444;2023-08-24T07:09:25;5.75;;;2.70;;
73823;SDS011;62154;54.914;73.444;2023-08-24T07:11:54;4.40;;;3.25;;
73823;SDS011;62154;54.914;73.444;2023-08-24T07:14:21;8.05;;;4.20;;
73823;SDS011;62154;54.914;73.444;2023-08-24T07:16:49;3.90;;;2.22;;
73823;SDS011;62154;54.914;73.444;2023-08-24T07:19:16;6.03;;;2.65;;
73823;SDS011;62154;54.914;73.444;2023-08-24T07:21:44;11.00;;;5.13;;
73823;SDS011;62154;54.914;73.444;2023-08-24T07:24:12;6.60;;;3.08;;
73823;SDS011;62154;54.914;73.444;2023-08-24T07:26:40;11.32;;;4.88;;
73823;SDS011;62154;54.914;73.444;2023-08-24T07:29:13;7.03;;;3.08;;
73823;SDS011;62154;54.914;73.444;2023-08-24T07:31:43;5.78;;;3.00;;
73823;SDS011;62154;54.914;73.444;2023-08-24T07:34:10;8.75;;;4.65;;
73823;SDS011;62154;54.914;73.444;2023-08-24T07:36:38;3.50;;;2.37;;
73823;SDS011;62154;54.914;73.444;2023-08-24T07:39:05;2.30;;;1.50;;
73823;SDS011;62154;54.914;73.444;2023-08-24T07:41:33;3.45;;;2.00;;
73823;SDS011;62154;54.914;73.444;2023-08-24T07:44:01;17.02;;;7.80;;
73823;SDS011;62154;54.914;73.444;2023-08-24T07:46:28;5.53;;;2.95;;
73823;SDS011;62154;54.914;73.444;2023-08-24T07:48:56;4.40;;;2.38;;
73823;SDS011;62154;54.914;73.444;2023-08-24T07:51:24;5.55;;;2.58;;
73823;SDS011;62154;54.914;73.444;2023-08-24T07:53:51;2.90;;;2.15;;
73823;SDS011;62154;54.914;73.444;2023-08-24T07:56:19;3.67;;;2.05;;
73823;SDS011;62154;54.914;73.444;2023-08-24T07:58:47;10.82;;;3.80;;
73823;SDS011;62154;54.914;73.444;2023-08-24T08:01:14;5.25;;;2.13;;
73823;SDS011;62154;54.914;73.444;2023-08-24T08:03:41;8.45;;;3.15;;
73823;SDS011;62154;54.914;73.444;2023-08-24T08:06:09;8.03;;;4.73;;
73823;SDS011;62154;54.914;73.444;2023-08-24T08:08:38;3.15;;;1.70;;
73823;SDS011;62154;54.914;73.444;2023-08-24T08:11:06;5.45;;;2.95;;
73823;SDS011;62154;54.914;73.444;2023-08-24T08:13:33;4.90;;;2.75;;
73823;SDS011;62154;54.914;73.444;2023-08-24T08:16:05;4.41;;;2.13;;
73823;SDS011;62154;54.914;73.444;2023-08-24T08:18:34;10.55;;;5.65;;
73823;SDS011;62154;54.914;73.444;2023-08-24T08:21:10;12.57;;;6.45;;
73823;SDS011;62154;54.914;73.444;2023-08-24T08:23:41;17.85;;;9.77;;
73823;SDS011;62154;54.914;73.444;2023-08-24T08:26:10;9.92;;;5.28;;
73823;SDS011;62154;54.914;73.444;2023-08-24T08:28:38;4.80;;;2.83;;
73823;SDS011;62154;54.914;73.444;2023-08-24T08:31:06;5.32;;;3.72;;
73823;SDS011;62154;54.914;73.444;2023-08-24T08:33:33;3.17;;;2.10;;
73823;SDS011;62154;54.914;73.444;2023-08-24T08:36:01;2.45;;;1.60;;
73823;SDS011;62154;54.914;73.444;2023-08-24T08:38:29;5.43;;;2.00;;
73823;SDS011;62154;54.914;73.444;2023-08-24T08:41:02;14.65;;;10.55;;
73823;SDS011;62154;54.914;73.444;2023-08-24T08:43:31;2.40;;;1.85;;
73823;SDS011;62154;54.914;73.444;2023-08-24T08:45:59;3.22;;;1.83;;
73823;SDS011;62154;54.914;73.444;2023-08-24T08:48:28;1.67;;;1.30;;
73823;SDS011;62154;54.914;73.444;2023-08-24T08:50:58;2.58;;;1.40;;
73823;SDS011;62154;54.914;73.444;2023-08-24T08:53:27;2.22;;;1.75;;
73823;SDS011;62154;54.914;73.444;2023-08-24T08:55:55;3.38;;;2.33;;
73823;SDS011;62154;54.914;73.444;2023-08-24T08:58:31;16.83;;;15.02;;
73823;SDS011;62154;54.914;73.444;2023-08-24T09:00:58;26.42;;;23.77;;
73823;SDS011;62154;54.914;73.444;2023-08-24T09:03:30;55.38;;;49.35;;
73823;SDS011;62154;54.914;73.444;2023-08-24T09:06:03;18.60;;;13.48;;
73823;SDS011;62154;54.914;73.444;2023-08-24T09:08:31;5.40;;;4.90;;
73823;SDS011;62154;54.914;73.444;2023-08-24T09:10:59;8.10;;;5.18;;
73823;SDS011;62154;54.914;73.444;2023-08-24T09:13:26;6.18;;;3.15;;
73823;SDS011;62154;54.914;73.444;2023-08-24T09:16:04;9.48;;;5.15;;
73823;SDS011;62154;54.914;73.444;2023-08-24T09:18:36;18.85;;;9.85;;
73823;SDS011;62154;54.914;73.444;2023-08-24T09:21:08;5.03;;;2.40;;
73823;SDS011;62154;54.914;73.444;2023-08-24T09:26:05;24.95;;;12.43;;
73823;SDS011;62154;54.914;73.444;2023-08-24T09:28:32;9.27;;;5.38;;
73823;SDS011;62154;54.914;73.444;2023-08-24T09:31:03;11.05;;;5.35;;
73823;SDS011;62154;54.914;73.444;2023-08-24T09:33:30;6.35;;;3.55;;
73823;SDS011;62154;54.914;73.444;2023-08-24T09:35:57;6.30;;;4.57;;
73823;SDS011;62154;54.914;73.444;2023-08-24T09:38:30;12.50;;;7.00;;
73823;SDS011;62154;54.914;73.444;2023-08-24T09:40:57;11.50;;;5.90;;
73823;SDS011;62154;54.914;73.444;2023-08-24T09:43:25;9.23;;;4.85;;
73823;SDS011;62154;54.914;73.444;2023-08-24T09:45:53;10.35;;;5.65;;
73823;SDS011;62154;54.914;73.444;2023-08-24T09:48:23;4.80;;;3.15;;
73823;SDS011;62154;54.914;73.444;2023-08-24T09:50:51;5.25;;;2.33;;
73823;SDS011;62154;54.914;73.444;2023-08-24T09:53:19;3.58;;;1.50;;
73823;SDS011;62154;54.914;73.444;2023-08-24T09:55:58;3.83;;;2.08;;
73823;SDS011;62154;54.914;73.444;2023-08-24T09:58:28;4.15;;;3.65;;
73823;SDS011;62154;54.914;73.444;2023-08-24T10:00:56;3.15;;;2.83;;
73823;SDS011;62154;54.914;73.444;2023-08-24T10:03:24;3.35;;;1.52;;
73823;SDS011;62154;54.914;73.444;2023-08-24T10:05:56;3.45;;;2.28;;
73823;SDS011;62154;54.914;73.444;2023-08-24T10:08:32;2.25;;;1.25;;
73823;SDS011;62154;54.914;73.444;2023-08-24T10:11:06;1.35;;;1.25;;
73823;SDS011;62154;54.914;73.444;2023-08-24T10:13:39;5.95;;;1.75;;
73823;SDS011;62154;54.914;73.444;2023-08-24T10:16:11;10.60;;;4.97;;
73823;SDS011;62154;54.914;73.444;2023-08-24T10:18:40;10.50;;;6.78;;
73823;SDS011;62154;54.914;73.444;2023-08-24T10:21:08;7.40;;;5.03;;
73823;SDS011;62154;54.914;73.444;2023-08-24T10:23:36;7.80;;;3.83;;
73823;SDS011;62154;54.914;73.444;2023-08-24T10:26:08;8.95;;;5.20;;
73823;SDS011;62154;54.914;73.444;2023-08-24T10:28:39;9.77;;;4.80;;
73823;SDS011;62154;54.914;73.444;2023-08-24T10:31:07;7.00;;;3.35;;
73823;SDS011;62154;54.914;73.444;2023-08-24T10:33:35;8.93;;;4.00;;
73823;SDS011;62154;54.914;73.444;2023-08-24T10:36:04;4.88;;;3.03;;
73823;SDS011;62154;54.914;73.444;2023-08-24T10:38:34;1.85;;;1.23;;
73823;SDS011;62154;54.914;73.444;2023-08-24T10:43:48;2.20;;;1.20;;
73823;SDS011;62154;54.914;73.444;2023-08-24T10:46:17;4.35;;;1.45;;
73823;SDS011;62154;54.914;73.444;2023-08-24T10:51:25;5.50;;;2.45;;
73823;SDS011;62154;54.914;73.444;2023-08-24T10:53:57;2.55;;;1.30;;
73823;SDS011;62154;54.914;73.444;2023-08-24T10:56:36;3.85;;;1.70;;
73823;SDS011;62154;54.914;73.444;2023-08-24T10:59:15;4.57;;;2.17;;
73823;SDS011;62154;54.914;73.444;2023-08-24T11:04:20;6.05;;;1.90;;
73823;SDS011;62154;54.914;73.444;2023-08-24T11:06:52;6.68;;;2.78;;
73823;SDS011;62154;54.914;73.444;2023-08-24T11:09:24;8.32;;;3.60;;
73823;SDS011;62154;54.914;73.444;2023-08-24T11:11:55;12.32;;;6.97;;
73823;SDS011;62154;54.914;73.444;2023-08-24T11:14:25;8.88;;;4.18;;
73823;SDS011;62154;54.914;73.444;2023-08-24T11:16:55;14.93;;;7.30;;
73823;SDS011;62154;54.914;73.444;2023-08-24T11:19:24;5.32;;;4.10;;
73823;SDS011;62154;54.914;73.444;2023-08-24T11:21:52;5.32;;;3.05;;
73823;SDS011;62154;54.914;73.444;2023-08-24T11:24:21;3.42;;;2.25;;
73823;SDS011;62154;54.914;73.444;2023-08-24T11:26:52;6.88;;;3.15;;
73823;SDS011;62154;54.914;73.444;2023-08-24T11:29:19;6.28;;;2.75;;
73823;SDS011;62154;54.914;73.444;2023-08-24T11:31:47;4.32;;;2.38;;
73823;SDS011;62154;54.914;73.444;2023-08-24T11:34:15;8.85;;;2.90;;
73823;SDS011;62154;54.914;73.444;2023-08-24T11:36:46;6.15;;;1.92;;
73823;SDS011;62154;54.914;73.444;2023-08-24T11:39:21;5.75;;;3.15;;
73823;SDS011;62154;54.914;73.444;2023-08-24T11:42:00;3.55;;;1.48;;
73823;SDS011;62154;54.914;73.444;2023-08-24T11:44:48;6.80;;;3.20;;
73823;SDS011;62154;54.914;73.444;2023-08-24T11:47:19;10.45;;;5.40;;
73823;SDS011;62154;54.914;73.444;2023-08-24T11:49:49;13.65;;;3.58;;
73823;SDS011;62154;54.914;73.444;2023-08-24T11:52:17;5.57;;;2.92;;
73823;SDS011;62154;54.914;73.444;2023-08-24T11:54:45;6.53;;;2.60;;
73823;SDS011;62154;54.914;73.444;2023-08-24T11:57:12;6.07;;;1.70;;
73823;SDS011;62154;54.914;73.444;2023-08-24T11:59:40;6.65;;;3.03;;
73823;SDS011;62154;54.914;73.444;2023-08-24T12:02:12;5.03;;;2.45;;
73823;SDS011;62154;54.914;73.444;2023-08-24T12:04:43;7.50;;;3.70;;
73823;SDS011;62154;54.914;73.444;2023-08-24T12:07:11;9.70;;;1.92;;
73823;SDS011;62154;54.914;73.444;2023-08-24T12:09:40;6.65;;;3.17;;
73823;SDS011;62154;54.914;73.444;2023-08-24T12:12:21;4.45;;;1.95;;
73823;SDS011;62154;54.914;73.444;2023-08-24T12:14:55;4.55;;;1.80;;
73823;SDS011;62154;54.914;73.444;2023-08-24T12:17:26;5.05;;;1.73;;
73823;SDS011;62154;54.914;73.444;2023-08-24T12:19:58;8.10;;;4.70;;
73823;SDS011;62154;54.914;73.444;2023-08-24T12:22:29;20.88;;;11.43;;
73823;SDS011;62154;54.914;73.444;2023-08-24T12:24:56;17.50;;;11.30;;
73823;SDS011;62154;54.914;73.444;2023-08-24T12:27:25;23.90;;;13.95;;
73823;SDS011;62154;54.914;73.444;2023-08-24T12:29:54;16.25;;;7.60;;
73823;SDS011;62154;54.914;73.444;2023-08-24T12:32:21;9.43;;;4.90;;
73823;SDS011;62154;54.914;73.444;2023-08-24T12:34:51;10.57;;;3.65;;
73823;SDS011;62154;54.914;73.444;2023-08-24T12:37:21;4.53;;;2.05;;
73823;SDS011;62154;54.914;73.444;2023-08-24T12:39:48;7.95;;;2.38;;
73823;SDS011;62154;54.914;73.444;2023-08-24T12:42:16;6.25;;;2.45;;
73823;SDS011;62154;54.914;73.444;2023-08-24T12:44:44;5.43;;;2.15;;
73823;SDS011;62154;54.914;73.444;2023-08-24T12:47:11;8.35;;;2.03;;
73823;SDS011;62154;54.914;73.444;2023-08-24T12:49:40;10.60;;;4.75;;
73823;SDS011;62154;54.914;73.444;2023-08-24T12:52:10;8.50;;;4.65;;
73823;SDS011;62154;54.914;73.444;2023-08-24T12:54:38;15.73;;;4.40;;
73823;SDS011;62154;54.914;73.444;2023-08-24T12:57:08;3.67;;;2.53;;
73823;SDS011;62154;54.914;73.444;2023-08-24T12:59:36;14.23;;;3.92;;
73823;SDS011;62154;54.914;73.444;2023-08-24T13:02:04;5.38;;;2.30;;
73823;SDS011;62154;54.914;73.444;2023-08-24T13:04:32;3.60;;;1.30;;
73823;SDS011;62154;54.914;73.444;2023-08-24T13:07:00;7.05;;;1.60;;
73823;SDS011;62154;54.914;73.444;2023-08-24T13:09:28;4.55;;;1.42;;
73823;SDS011;62154;54.914;73.444;2023-08-24T13:11:59;7.30;;;1.20;;
73823;SDS011;62154;54.914;73.444;2023-08-24T13:14:26;4.78;;;0.95;;
73823;SDS011;62154;54.914;73.444;2023-08-24T13:16:53;8.00;;;3.80;;
73823;SDS011;62154;54.914;73.444;2023-08-24T13:19:21;5.13;;;2.25;;
73823;SDS011;62154;54.914;73.444;2023-08-24T13:21:49;3.30;;;1.60;;
73823;SDS011;62154;54.914;73.444;2023-08-24T13:24:16;6.72;;;2.67;;
73823;SDS011;62154;54.914;73.444;2023-08-24T13:26:44;8.25;;;1.70;;
73823;SDS011;62154;54.914;73.444;2023-08-24T13:29:12;6.78;;;3.95;;
73823;SDS011;62154;54.914;73.444;2023-08-24T13:31:39;8.13;;;3.97;;
73823;SDS011;62154;54.914;73.444;2023-08-24T13:34:07;13.90;;;4.25;;
73823;SDS011;62154;54.914;73.444;2023-08-24T13:36:35;14.30;;;6.10;;
73823;SDS011;62154;54.914;73.444;2023-08-24T13:39:03;31.80;;;14.33;;
73823;SDS011;62154;54.914;73.444;2023-08-24T13:41:31;22.85;;;9.40;;
73823;SDS011;62154;54.914;73.444;2023-08-24T13:44:01;12.52;;;5.15;;
73823;SDS011;62154;54.914;73.444;2023-08-24T13:46:28;10.38;;;3.05;;
73823;SDS011;62154;54.914;73.444;2023-08-24T13:48:56;9.80;;;3.03;;
73823;SDS011;62154;54.914;73.444;2023-08-24T13:51:23;9.73;;;3.05;;
73823;SDS011;62154;54.914;73.444;2023-08-24T13:53:51;13.52;;;5.13;;
73823;SDS011;62154;54.914;73.444;2023-08-24T13:56:18;34.70;;;18.38;;
73823;SDS011;62154;54.914;73.444;2023-08-24T13:58:48;106.40;;;74.03;;
73823;SDS011;62154;54.914;73.444;2023-08-24T14:01:19;35.33;;;24.83;;
73823;SDS011;62154;54.914;73.444;2023-08-24T14:03:51;25.73;;;14.07;;
73823;SDS011;62154;54.914;73.444;2023-08-24T14:06:18;33.05;;;21.20;;
73823;SDS011;62154;54.914;73.444;2023-08-24T14:08:49;37.20;;;23.42;;
73823;SDS011;62154;54.914;73.444;2023-08-24T14:11:21;26.23;;;19.95;;
73823;SDS011;62154;54.914;73.444;2023-08-24T14:13:49;56.05;;;40.58;;
73823;SDS011;62154;54.914;73.444;2023-08-24T14:16:17;39.97;;;27.23;;
73823;SDS011;62154;54.914;73.444;2023-08-24T14:18:45;29.88;;;21.98;;
73823;SDS011;62154;54.914;73.444;2023-08-24T14:21:15;141.60;;;126.60;;
73823;SDS011;62154;54.914;73.444;2023-08-24T14:23:43;65.65;;;46.08;;
73823;SDS011;62154;54.914;73.444;2023-08-24T14:26:11;28.67;;;19.13;;
73823;SDS011;62154;54.914;73.444;2023-08-24T14:28:47;27.45;;;18.88;;
73823;SDS011;62154;54.914;73.444;2023-08-24T14:31:18;37.53;;;21.40;;
73823;SDS011;62154;54.914;73.444;2023-08-24T14:33:50;42.92;;;19.27;;
73823;SDS011;62154;54.914;73.444;2023-08-24T14:36:19;70.45;;;45.78;;
73823;SDS011;62154;54.914;73.444;2023-08-24T14:38:47;115.53;;;74.80;;
73823;SDS011;62154;54.914;73.444;2023-08-24T14:41:16;213.85;;;127.03;;
73823;SDS011;62154;54.914;73.444;2023-08-24T14:43:44;225.95;;;123.35;;
73823;SDS011;62154;54.914;73.444;2023-08-24T14:46:13;88.30;;;52.53;;
73823;SDS011;62154;54.914;73.444;2023-08-24T14:48:41;138.32;;;78.72;;
73823;SDS011;62154;54.914;73.444;2023-08-24T14:51:08;245.90;;;137.50;;
73823;SDS011;62154;54.914;73.444;2023-08-24T14:53:38;228.00;;;116.90;;